Bossier City, LA (71111)

10:08 PM CST on December 26, 2014 (GMT -0600)
North Bossier Weather Station | Change Station
CLOSE
Current Station
Personal Weather Station
Location: Bossier City, LA
Elevation: 173 ft
Nearby Weather Stations

Elev 173 ft 32.58 °N, 93.73 °W | Updated 3 seconds ago

Overcast
Overcast
58.5 °F
Feels Like 58.5 °F
N
4.0
Wind Variable Wind from South
Gusts 12.0 mph

Today
High -- | Low -- °F
--% Chance of Precip.
Yesterday
High -- | Low -- °F
Precip. -- in
7:14 AM 5:16 PM
Waxing Crescent, 32% visible
Pressure 30.07 in
Visibility 8.0 miles
Clouds Overcast 700 ft
Dew Point 57 °F
Humidity 96%
Rainfall 0.00 in
Snow Depth Not available.
UV 0 out of 12
Pollen 3.50 out of 12
Air Quality Not available.
Flu Activity Not available.
METAR KDTN 270353Z AUTO 15009KT 8SM OVC007 14/13 A3007 RMK AO2 SLP183 T01440128

More Conditions Fewer Conditions

Pressure 30.07 in
Visibility 8.0 miles
Clouds Overcast 700 ft
Dew Point 57 °F
Humidity 96%
Rainfall 0.00 in
Snow Depth Not available.
UV 0 out of 12
Pollen 3.50 out of 12
Air Quality Not available.
Flu Activity Not available.
METAR KDTN 270353Z AUTO 15009KT 8SM OVC007 14/13 A3007 RMK AO2 SLP183 T01440128

More Conditions Fewer Conditions

Nowcast | as of 8:43 PM CST on December 26, 2014

Through 1030 PM CST...look for patchy light rain to continue spreading to the northeast at 35 mph across east and northeast Texas and parts of southwest and south central Arkansas and northwest and north central Louisiana. There may also be some patchy light drizzle at times. Rainfall amounts will range from a trace to a few one hundredths of an inch.

×

10-Day Weather Forecast

Almanac

Astronomy

Dec. 26, 2014 Rise Set
Actual Time
Civil Twilight
Nautical Twilight
Astronomical Twilight
Moon
Length of Visible Light
Length of Day
Tomorrow will be .
, % of the Moon is Illuminated

Today's Extremes

State Highs State Lows

Community

WunderPhotos

Upload Photos

1,780,844 photos uploaded!

WunderBlogs® & News

Nearby

Air Quality

  Air Quality AQ Index Pollutant
Not available.

Snow Depth

Station Depth Elevation

Earthquake Activity

City Distance Mag. Time & Date
Minimum magnitude displayed is 2.5.

Coastal Water Temperatures

Place Temperature

Nearby Weather Stations